createdAt,value
2022-09-21T00:01:28.669Z,79.58
2022-09-21T00:04:02.041Z,79.36
2022-09-21T00:06:32.854Z,79.26
2022-09-21T00:09:00.971Z,79.52
2022-09-21T00:11:30.393Z,80.18
2022-09-21T00:14:01.022Z,80.26
2022-09-21T00:16:29.290Z,80.20
2022-09-21T00:18:56.754Z,80.23
2022-09-21T00:21:24.520Z,80.15
2022-09-21T00:23:51.975Z,80.06
2022-09-21T00:26:21.998Z,80.25
2022-09-21T00:28:54.735Z,79.86
2022-09-21T00:31:23.303Z,79.79
2022-09-21T00:33:51.316Z,80.20
2022-09-21T00:36:21.958Z,80.31
2022-09-21T00:38:55.657Z,80.21
2022-09-21T00:41:24.177Z,80.64
2022-09-21T00:44:22.611Z,80.98
2022-09-21T00:46:51.785Z,81.02
2022-09-21T00:49:20.858Z,80.63
2022-09-21T00:51:49.421Z,80.54
2022-09-21T00:54:30.149Z,80.40
2022-09-21T00:57:01.887Z,80.39
2022-09-21T00:59:32.713Z,80.33
2022-09-21T01:02:00.281Z,80.49
2022-09-21T01:04:28.524Z,80.25
2022-09-21T01:06:57.872Z,80.80
2022-09-21T01:09:26.082Z,80.41
2022-09-21T01:12:08.436Z,79.74
2022-09-21T01:15:04.871Z,79.15
2022-09-21T01:17:44.205Z,79.67
2022-09-21T01:20:17.612Z,80.51
2022-09-21T01:23:06.208Z,81.22
2022-09-21T01:26:07.389Z,81.36
2022-09-21T01:28:37.384Z,81.74
2022-09-21T01:31:07.561Z,81.90
2022-09-21T01:33:40.126Z,81.81
2022-09-21T01:36:14.398Z,81.63
2022-09-21T01:38:55.346Z,81.97
2022-09-21T01:41:28.181Z,82.34
2022-09-21T01:44:01.610Z,82.52
2022-09-21T01:46:32.637Z,83.73
2022-09-21T01:49:06.056Z,83.60
2022-09-21T01:51:35.229Z,84.23
2022-09-21T01:54:13.538Z,84.38
2022-09-21T01:56:49.527Z,84.91
2022-09-21T01:59:18.710Z,84.69
2022-09-21T02:01:52.134Z,83.96
2022-09-21T02:04:20.050Z,83.89
2022-09-21T02:06:49.232Z,84.01
2022-09-21T02:09:17.416Z,83.35
2022-09-21T02:11:45.188Z,83.52
2022-09-21T02:14:16.895Z,83.57
2022-09-21T02:17:18.603Z,82.99
2022-09-21T02:19:49.340Z,83.32
2022-09-21T02:22:44.506Z,82.99
2022-09-21T02:25:18.241Z,84.60
2022-09-21T02:27:57.133Z,85.18
2022-09-21T02:30:26.375Z,84.13
2022-09-21T02:33:03.283Z,85.10
2022-09-21T02:35:55.717Z,85.04
2022-09-21T02:38:26.680Z,84.44
2022-09-21T02:41:25.030Z,86.04
2022-09-21T02:44:22.626Z,87.69
2022-09-21T02:46:54.433Z,87.61
2022-09-21T02:49:31.584Z,88.29
2022-09-21T02:52:05.410Z,88.70
2022-09-21T02:54:34.680Z,89.99
2022-09-21T02:57:03.086Z,90.63
2022-09-21T02:59:30.223Z,90.45
2022-09-21T03:01:58.152Z,89.69
2022-09-21T03:04:28.004Z,88.62
2022-09-21T03:06:57.238Z,88.75
2022-09-21T03:09:24.642Z,88.43
2022-09-21T03:11:52.297Z,87.83
2022-09-21T03:14:19.665Z,87.75
2022-09-21T03:16:47.090Z,87.86
2022-09-21T03:19:15.116Z,88.74
2022-09-21T03:21:44.726Z,90.10
2022-09-21T03:24:13.250Z,90.21
2022-09-21T03:26:43.021Z,90.57
2022-09-21T03:29:11.914Z,91.39
2022-09-21T03:31:40.131Z,91.46
2022-09-21T03:34:08.311Z,91.48
2022-09-21T03:36:36.355Z,91.62
2022-09-21T03:39:03.827Z,91.53
2022-09-21T03:41:32.379Z,91.97
2022-09-21T03:44:00.943Z,92.41
2022-09-21T03:46:28.654Z,92.57
2022-09-21T03:48:57.009Z,93.05
2022-09-21T03:51:24.281Z,93.27
2022-09-21T03:53:51.603Z,93.37
2022-09-21T03:56:19.041Z,92.83
2022-09-21T03:58:46.498Z,92.77
2022-09-21T04:01:13.922Z,92.96
2022-09-21T04:03:41.335Z,93.46
2022-09-21T04:06:13.005Z,93.34
2022-09-21T04:08:40.650Z,93.13
2022-09-21T04:11:13.509Z,92.95
2022-09-21T04:13:42.550Z,92.45
2022-09-21T04:16:11.492Z,92.35
2022-09-21T04:18:38.850Z,92.80
2022-09-21T04:21:06.729Z,92.23
2022-09-21T04:23:33.996Z,91.87
2022-09-21T04:26:02.857Z,91.33
2022-09-21T04:28:30.082Z,90.96
2022-09-21T04:30:57.472Z,90.64
2022-09-21T04:33:24.708Z,90.77
2022-09-21T04:35:55.985Z,90.51
2022-09-21T04:38:23.352Z,90.32
2022-09-21T04:40:59.304Z,90.21
2022-09-21T04:43:27.298Z,90.10
2022-09-21T04:45:55.117Z,89.34
2022-09-21T04:48:22.488Z,88.61
2022-09-21T04:50:50.566Z,88.16
2022-09-21T04:53:18.407Z,87.70
2022-09-21T04:55:46.566Z,87.97
2022-09-21T04:58:13.904Z,88.16
2022-09-21T05:00:46.311Z,88.22
2022-09-21T05:03:16.763Z,87.70
2022-09-21T05:05:51.960Z,87.50
2022-09-21T05:08:43.258Z,86.99
2022-09-21T05:11:13.385Z,86.93
2022-09-21T05:13:40.796Z,86.61
2022-09-21T05:16:08.859Z,86.27
2022-09-21T05:18:36.871Z,86.08
2022-09-21T05:21:05.052Z,85.74
2022-09-21T05:23:32.978Z,84.89
2022-09-21T05:26:00.233Z,84.50
2022-09-21T05:28:28.261Z,84.02
2022-09-21T05:31:17.111Z,83.87
2022-09-21T05:33:53.232Z,83.47
2022-09-21T05:36:29.926Z,83.07
2022-09-21T05:39:00.793Z,82.53
2022-09-21T05:41:28.830Z,82.65
2022-09-21T05:43:56.716Z,82.60
2022-09-21T05:46:41.365Z,82.84
2022-09-21T05:49:17.444Z,82.51
2022-09-21T05:52:02.642Z,82.21
2022-09-21T05:55:13.557Z,82.24
2022-09-21T05:58:02.002Z,81.20
2022-09-21T06:00:43.862Z,80.67
2022-09-21T06:03:17.917Z,79.51
2022-09-21T06:05:45.461Z,80.23
2022-09-21T06:08:12.747Z,79.45
2022-09-21T06:10:40.043Z,79.96
2022-09-21T06:13:07.519Z,79.44
2022-09-21T06:15:38.678Z,79.61
2022-09-21T06:31:39.342Z,77.08
2022-09-21T06:34:07.132Z,77.10
2022-09-21T06:36:34.496Z,77.02
2022-09-21T07:20:37.862Z,71.08
2022-09-21T07:23:31.178Z,71.06
2022-09-21T07:26:03.262Z,70.57
2022-09-21T07:28:31.327Z,69.51
2022-09-21T07:30:59.828Z,69.51
2022-09-21T07:33:27.423Z,68.71
2022-09-21T07:35:58.863Z,69.60
2022-09-21T07:38:26.650Z,68.81
2022-09-21T07:40:54.104Z,67.09
2022-09-21T07:43:21.999Z,67.88
2022-09-21T07:45:57.085Z,66.58
2022-09-21T07:48:25.266Z,66.51
2022-09-21T07:50:53.142Z,66.90
2022-09-21T07:53:21.614Z,66.49
2022-09-21T07:55:48.916Z,66.03
2022-09-21T07:58:35.678Z,65.97
2022-09-21T08:01:07.095Z,65.89
2022-09-21T08:03:34.917Z,65.94
2022-09-21T08:06:02.285Z,64.38
2022-09-21T08:08:30.211Z,64.78
2022-09-21T08:11:04.242Z,65.20
2022-09-21T08:13:32.405Z,64.72
2022-09-21T08:16:03.631Z,63.94
2022-09-21T08:18:32.074Z,63.90
2022-09-21T08:21:00.898Z,63.67
2022-09-21T08:23:31.021Z,62.53
2022-09-21T08:26:00.468Z,62.89
2022-09-21T08:28:29.049Z,60.63
2022-09-21T08:31:06.401Z,62.07
2022-09-21T08:33:33.693Z,61.94
2022-09-21T08:36:01.722Z,61.33
2022-09-21T08:38:37.595Z,61.05
2022-09-21T08:41:22.842Z,60.13
2022-09-21T08:44:05.817Z,60.39
2022-09-21T08:46:37.537Z,59.46
2022-09-21T08:49:11.553Z,59.41
2022-09-21T08:51:50.198Z,59.09
2022-09-21T08:54:30.433Z,59.12
2022-09-21T08:57:05.348Z,59.00
2022-09-21T08:59:34.711Z,60.30
2022-09-21T09:02:31.049Z,61.09
2022-09-21T09:05:25.118Z,59.87
2022-09-21T09:07:54.153Z,60.56
2022-09-21T09:10:54.980Z,58.65
2022-09-21T09:13:43.531Z,58.88
2022-09-21T09:16:36.734Z,58.46
2022-09-21T09:19:13.706Z,57.35
2022-09-21T09:21:43.098Z,57.32
2022-09-21T09:24:38.315Z,57.49
2022-09-21T09:27:43.275Z,57.36
2022-09-21T09:30:21.433Z,58.20
2022-09-21T09:33:01.756Z,59.24
2022-09-21T09:35:36.665Z,59.74
2022-09-21T09:38:24.022Z,59.75
2022-09-21T09:41:02.275Z,59.27
2022-09-21T09:43:47.017Z,58.49
2022-09-21T09:46:14.769Z,59.27
2022-09-21T09:48:54.153Z,58.66
2022-09-21T09:51:22.895Z,58.56
2022-09-21T09:54:10.442Z,57.56
2022-09-21T09:56:38.453Z,55.51
2022-09-21T09:59:25.757Z,54.63
2022-09-21T10:02:02.598Z,54.80
2022-09-21T10:04:30.935Z,55.45
2022-09-21T10:06:58.719Z,54.63
2022-09-21T10:09:28.123Z,54.83
2022-09-21T10:12:01.750Z,55.77
2022-09-21T10:14:35.011Z,54.51
2022-09-21T10:17:07.548Z,53.97
2022-09-21T10:19:35.618Z,53.83
2022-09-21T10:22:05.007Z,53.84
2022-09-21T10:24:38.972Z,54.18
2022-09-21T10:27:14.002Z,52.51
2022-09-21T10:29:43.125Z,54.04
2022-09-21T10:32:14.794Z,53.85
2022-09-21T10:35:02.413Z,52.12
2022-09-21T10:37:34.963Z,51.93
2022-09-21T10:40:02.657Z,52.32
2022-09-21T10:42:42.910Z,51.93
2022-09-21T10:45:17.153Z,50.75
2022-09-21T10:48:00.289Z,50.35
2022-09-21T10:50:53.263Z,49.92
2022-09-21T10:53:42.051Z,50.56
2022-09-21T10:56:19.458Z,50.59
2022-09-21T10:59:31.922Z,49.49
2022-09-21T11:02:02.092Z,49.91
2022-09-21T11:05:07.141Z,49.12
2022-09-21T11:07:49.253Z,49.78
2022-09-21T11:10:34.300Z,49.49
2022-09-21T11:13:31.738Z,48.50
2022-09-21T11:16:08.564Z,48.67
2022-09-21T11:19:08.287Z,48.56
2022-09-21T11:21:50.816Z,48.38
2022-09-21T11:24:21.480Z,48.24
2022-09-21T11:27:08.394Z,48.12
2022-09-21T11:30:07.225Z,49.41
2022-09-21T11:32:58.890Z,51.00
2022-09-21T11:35:45.641Z,51.28
2022-09-21T11:38:33.749Z,51.16
2022-09-21T11:41:54.335Z,50.65
2022-09-21T11:44:41.181Z,49.50
2022-09-21T11:47:26.040Z,49.21
2022-09-21T11:50:31.302Z,48.32
2022-09-21T11:53:07.707Z,49.50
2022-09-21T11:55:57.912Z,48.51
2022-09-21T11:58:32.408Z,49.44
2022-09-21T12:01:12.401Z,50.50
2022-09-21T12:04:20.969Z,50.69
2022-09-21T12:06:59.981Z,51.18
2022-09-21T12:09:57.159Z,51.89
2022-09-21T12:12:44.359Z,55.02
2022-09-21T12:15:29.293Z,60.39
2022-09-21T12:18:48.713Z,62.09
2022-09-21T12:21:34.758Z,65.42
2022-09-21T12:24:17.840Z,64.14
2022-09-21T12:26:51.271Z,66.36
2022-09-21T12:29:47.368Z,67.22
2022-09-21T12:32:22.300Z,63.59
2022-09-21T12:35:03.766Z,61.50
2022-09-21T12:37:47.863Z,61.93
2022-09-21T12:40:28.007Z,59.83
2022-09-21T12:43:11.014Z,59.65
2022-09-21T12:45:45.969Z,58.93
2022-09-21T12:48:17.094Z,59.31
2022-09-21T12:51:05.798Z,58.43
2022-09-21T12:53:39.082Z,56.55
2022-09-21T12:56:16.857Z,56.70
2022-09-21T12:59:03.006Z,56.57
2022-09-21T13:01:42.901Z,56.65
2022-09-21T13:04:41.942Z,55.80
2022-09-21T13:07:36.083Z,57.92
2022-09-21T13:10:31.813Z,57.44
2022-09-21T13:13:03.445Z,56.95
2022-09-21T13:15:52.509Z,55.87
2022-09-21T13:18:22.853Z,56.20
2022-09-21T13:20:55.734Z,55.09
2022-09-21T13:23:34.639Z,55.98
2022-09-21T13:26:09.688Z,55.67
2022-09-21T13:29:07.109Z,55.52
2022-09-21T13:32:00.539Z,56.14
2022-09-21T13:34:32.813Z,56.86
2022-09-21T13:37:34.597Z,57.04
2022-09-21T13:40:03.003Z,57.03
2022-09-21T13:42:31.087Z,57.26
2022-09-21T13:45:13.992Z,56.65
2022-09-21T13:47:44.893Z,56.09
2022-09-21T13:50:39.385Z,55.62
2022-09-21T13:53:29.331Z,56.50
2022-09-21T13:56:08.899Z,55.27
2022-09-21T13:58:45.006Z,55.32
2022-09-21T14:01:45.200Z,55.17
2022-09-21T14:04:21.881Z,55.74
2022-09-21T14:06:53.378Z,55.64
2022-09-21T14:09:32.403Z,56.40
2022-09-21T14:12:03.855Z,56.29
2022-09-21T14:14:46.095Z,56.44
2022-09-21T14:17:39.704Z,58.97
2022-09-21T14:20:30.392Z,59.33
2022-09-21T14:23:14.871Z,59.05
2022-09-21T14:26:27.973Z,59.50
2022-09-21T14:28:55.506Z,60.15
2022-09-21T14:31:29.592Z,61.13
2022-09-21T14:34:01.431Z,60.50
2022-09-21T14:36:42.433Z,60.83
2022-09-21T14:39:26.023Z,61.39
2022-09-21T14:41:59.423Z,62.16
2022-09-21T14:44:30.493Z,63.44
2022-09-21T14:47:29.410Z,64.14
2022-09-21T14:50:21.320Z,69.91
2022-09-21T14:53:29.445Z,77.35
2022-09-21T14:56:42.581Z,78.08
2022-09-21T14:59:24.700Z,79.26
2022-09-21T15:01:59.754Z,82.80
2022-09-21T15:04:31.315Z,87.39
2022-09-21T15:07:43.830Z,92.97
2022-09-21T15:10:55.387Z,95.19
2022-09-21T15:13:53.534Z,94.60
2022-09-21T15:16:57.527Z,98.18
2022-09-21T15:19:29.471Z,98.29
2022-09-21T15:22:11.838Z,99.10
2022-09-21T15:24:59.600Z,98.77
2022-09-21T15:27:33.753Z,98.42
2022-09-21T15:30:05.219Z,97.42
2022-09-21T15:32:35.534Z,96.98
2022-09-21T15:35:21.786Z,96.80
2022-09-21T15:37:51.592Z,97.85
2022-09-21T15:40:28.099Z,98.19
2022-09-21T15:43:19.519Z,97.74
2022-09-21T15:46:12.223Z,99.10
2022-09-21T15:48:42.461Z,99.17
2022-09-21T15:51:25.685Z,98.09
2022-09-21T15:54:10.681Z,98.58
2022-09-21T15:56:43.676Z,97.82
2022-09-21T15:59:20.907Z,97.96
2022-09-21T16:01:55.355Z,97.60
2022-09-21T16:04:25.008Z,95.67
2022-09-21T16:07:05.736Z,93.53
2022-09-21T16:09:39.170Z,95.02
2022-09-21T16:12:25.656Z,95.19
2022-09-21T16:14:54.023Z,96.01
2022-09-21T16:17:30.344Z,95.20
2022-09-21T16:20:39.546Z,96.56
2022-09-21T16:23:24.300Z,97.46
2022-09-21T16:26:01.379Z,96.69
2022-09-21T16:28:31.891Z,95.45
2022-09-21T16:30:59.363Z,95.27
2022-09-21T16:33:49.108Z,94.82
2022-09-21T16:36:36.675Z,94.27
2022-09-21T16:39:12.806Z,94.24
2022-09-21T16:41:47.612Z,95.58
2022-09-21T16:44:21.103Z,95.83
2022-09-21T16:46:58.099Z,95.26
2022-09-21T16:49:30.489Z,94.95
2022-09-21T16:51:59.898Z,94.85
2022-09-21T16:54:28.174Z,94.58
2022-09-21T16:56:57.650Z,92.09
2022-09-21T16:59:26.205Z,94.06
2022-09-21T17:01:56.689Z,92.61
2022-09-21T17:04:28.227Z,93.51
2022-09-21T17:06:55.913Z,94.42
2022-09-21T17:09:38.636Z,92.86
2022-09-21T17:12:09.896Z,92.03
2022-09-21T17:14:40.911Z,92.42
2022-09-21T17:17:25.005Z,92.32
2022-09-21T17:19:54.430Z,91.79
2022-09-21T17:22:23.195Z,92.01
2022-09-21T17:24:52.765Z,91.89
2022-09-21T17:27:23.108Z,92.32
2022-09-21T17:29:51.073Z,92.46
2022-09-21T17:32:21.301Z,93.30
2022-09-21T17:34:59.022Z,93.12
2022-09-21T17:37:27.696Z,92.41
2022-09-21T17:39:54.982Z,92.39
2022-09-21T17:42:25.999Z,93.37
2022-09-21T17:45:28.367Z,93.89
2022-09-21T17:47:55.764Z,94.99
2022-09-21T17:50:31.730Z,95.53
2022-09-21T17:53:18.135Z,96.89
2022-09-21T17:55:54.525Z,97.73
2022-09-21T17:58:40.507Z,99.04
2022-09-21T18:01:16.743Z,98.90
2022-09-21T18:03:44.749Z,99.08
2022-09-21T18:06:13.619Z,98.44
2022-09-21T18:08:42.349Z,97.84
2022-09-21T18:11:25.122Z,98.48
2022-09-21T18:14:09.420Z,99.07
2022-09-21T18:16:46.102Z,99.86
2022-09-21T18:19:51.098Z,100.00
2022-09-21T18:22:21.274Z,100.00
2022-09-21T18:24:49.115Z,100.00
2022-09-21T18:27:20.537Z,100.00
2022-09-21T18:29:49.415Z,100.00
2022-09-21T18:32:44.073Z,100.00
2022-09-21T18:35:48.597Z,100.00
2022-09-21T18:38:59.715Z,100.00
2022-09-21T18:41:36.767Z,100.00
2022-09-21T18:44:09.414Z,100.00
2022-09-21T18:46:39.892Z,100.00
2022-09-21T18:49:29.323Z,100.00
2022-09-21T18:52:13.758Z,100.00
2022-09-21T18:54:41.224Z,100.00
2022-09-21T18:57:13.439Z,100.00
2022-09-21T18:59:44.359Z,100.00
2022-09-21T19:02:14.782Z,100.00
2022-09-21T19:04:49.582Z,100.00
2022-09-21T19:07:22.635Z,99.95
2022-09-21T19:10:21.833Z,100.00
2022-09-21T19:13:15.716Z,100.00
2022-09-21T19:16:01.358Z,100.00
2022-09-21T19:18:53.862Z,100.00
2022-09-21T19:21:37.909Z,100.00
2022-09-21T19:24:30.679Z,100.00
2022-09-21T19:27:23.018Z,100.00
2022-09-21T19:29:58.959Z,100.00
2022-09-21T19:32:41.233Z,100.00
2022-09-21T19:35:29.618Z,100.00
2022-09-21T19:38:00.182Z,100.00
2022-09-21T19:40:30.372Z,100.00
2022-09-21T19:43:53.439Z,100.00
2022-09-21T19:47:06.590Z,100.00
2022-09-21T19:49:46.749Z,100.00
2022-09-21T19:52:18.108Z,100.00
2022-09-21T19:55:04.599Z,100.00
2022-09-21T19:57:53.547Z,100.00
2022-09-21T20:00:21.399Z,100.00
2022-09-21T20:03:17.946Z,100.00
2022-09-21T20:06:04.676Z,100.00
2022-09-21T20:08:47.673Z,100.00
2022-09-21T20:11:21.803Z,100.00
2022-09-21T20:14:31.502Z,100.00
2022-09-21T20:17:01.219Z,100.00
2022-09-21T20:19:36.606Z,100.00
2022-09-21T20:22:15.683Z,99.87
2022-09-21T20:24:49.462Z,99.63
2022-09-21T20:27:34.952Z,99.56
2022-09-21T20:30:05.227Z,99.26
2022-09-21T20:32:34.398Z,98.55
2022-09-21T20:35:01.816Z,98.68
2022-09-21T20:37:30.380Z,99.74
2022-09-21T20:39:57.547Z,100.00
2022-09-21T20:42:25.272Z,100.00
2022-09-21T20:44:54.118Z,100.00
2022-09-21T20:47:21.521Z,100.00
2022-09-21T20:49:50.385Z,100.00
2022-09-21T20:52:17.454Z,100.00
2022-09-21T20:54:49.011Z,100.00
2022-09-21T20:57:17.903Z,100.00
2022-09-21T20:59:45.290Z,100.00
2022-09-21T21:02:16.644Z,100.00
2022-09-21T21:04:45.917Z,100.00
2022-09-21T21:07:14.280Z,100.00
2022-09-21T21:09:45.735Z,100.00
2022-09-21T21:12:14.353Z,100.00
2022-09-21T21:14:41.826Z,100.00
2022-09-21T21:17:09.081Z,100.00
2022-09-21T21:19:36.474Z,100.00
2022-09-21T21:22:03.991Z,100.00
2022-09-21T21:24:40.482Z,100.00
2022-09-21T21:27:17.744Z,100.00
2022-09-21T21:29:54.876Z,100.00
2022-09-21T21:32:25.000Z,100.00
2022-09-21T21:34:54.017Z,99.72
2022-09-21T21:37:25.080Z,99.42
2022-09-21T21:39:53.419Z,99.06
2022-09-21T21:42:21.232Z,99.63
2022-09-21T21:44:50.562Z,100.00
2022-09-21T21:47:38.762Z,100.00
2022-09-21T21:50:11.517Z,100.00
2022-09-21T21:52:41.114Z,100.00
2022-09-21T21:55:23.498Z,100.00
2022-09-21T21:57:51.401Z,100.00
2022-09-21T22:00:18.778Z,100.00
2022-09-21T22:02:46.472Z,100.00
2022-09-21T22:05:13.714Z,100.00
2022-09-21T22:07:41.839Z,100.00
2022-09-21T22:10:09.668Z,100.00
2022-09-21T22:12:41.093Z,100.00
2022-09-21T22:15:19.815Z,100.00
2022-09-21T22:17:49.409Z,100.00
2022-09-21T22:20:17.220Z,100.00
2022-09-21T22:22:45.129Z,100.00
2022-09-21T22:25:12.271Z,100.00
2022-09-21T22:27:39.576Z,100.00
2022-09-21T22:30:07.233Z,100.00
2022-09-21T22:32:34.592Z,100.00
2022-09-21T22:35:01.898Z,100.00
2022-09-21T22:37:30.253Z,100.00
2022-09-21T22:39:59.820Z,100.00
2022-09-21T22:42:32.944Z,100.00
2022-09-21T22:45:03.438Z,100.00
2022-09-21T22:47:31.172Z,100.00
2022-09-21T22:49:58.737Z,100.00
2022-09-21T22:52:26.219Z,100.00
2022-09-21T22:54:53.798Z,100.00
2022-09-21T22:57:21.037Z,100.00
2022-09-21T22:59:51.527Z,100.00
2022-09-21T23:02:21.088Z,100.00
2022-09-21T23:04:48.411Z,100.00
2022-09-21T23:07:16.987Z,100.00
2022-09-21T23:09:44.357Z,100.00
2022-09-21T23:12:11.472Z,100.00
2022-09-21T23:14:38.749Z,100.00
2022-09-21T23:17:06.092Z,100.00
2022-09-21T23:19:33.311Z,100.00
2022-09-21T23:22:03.568Z,100.00
2022-09-21T23:24:30.774Z,100.00
2022-09-21T23:27:01.060Z,100.00
2022-09-21T23:29:29.016Z,100.00
2022-09-21T23:31:56.408Z,100.00
2022-09-21T23:34:23.574Z,100.00
2022-09-21T23:36:50.791Z,100.00
2022-09-21T23:39:17.798Z,100.00
2022-09-21T23:41:45.373Z,100.00
2022-09-21T23:44:12.598Z,100.00
2022-09-21T23:46:41.370Z,100.00
2022-09-21T23:49:08.904Z,100.00
2022-09-21T23:51:41.659Z,100.00
2022-09-21T23:54:11.307Z,100.00
2022-09-21T23:56:38.571Z,100.00
2022-09-21T23:59:11.296Z,100.00
